createdAt,value
2022-12-24T00:00:09.465Z,94.71
2022-12-24T00:00:59.436Z,95.22
2022-12-24T00:01:49.419Z,94.81
2022-12-24T00:02:39.522Z,95.26
2022-12-24T00:03:29.534Z,94.65
2022-12-24T00:04:19.394Z,95.06
2022-12-24T00:05:09.372Z,95.06
2022-12-24T00:05:59.371Z,94.65
2022-12-24T00:06:49.359Z,94.04
2022-12-24T00:07:39.362Z,94.14
2022-12-24T00:08:29.339Z,94.45
2022-12-24T00:09:19.360Z,94.65
2022-12-24T00:10:09.350Z,94.85
2022-12-24T00:10:59.310Z,95.06
2022-12-24T00:11:49.300Z,94.96
2022-12-24T00:12:39.490Z,94.75
2022-12-24T00:13:29.292Z,94.65
2022-12-24T00:14:19.271Z,94.65
2022-12-24T00:15:09.262Z,94.75
2022-12-24T00:15:59.263Z,94.65
2022-12-24T00:16:49.287Z,94.14
2022-12-24T00:17:39.253Z,93.93
2022-12-24T00:18:29.233Z,94.75
2022-12-24T00:19:19.224Z,94.45
2022-12-24T00:20:09.264Z,94.14
2022-12-24T00:20:59.203Z,94.24
2022-12-24T00:21:49.188Z,94.45
2022-12-24T00:22:39.198Z,94.75
2022-12-24T00:23:29.169Z,94.85
2022-12-24T00:24:19.168Z,93.52
2022-12-24T00:25:09.161Z,94.45
2022-12-24T00:25:59.149Z,93.73
2022-12-24T00:26:49.135Z,93.52
2022-12-24T00:27:39.161Z,94.34
2022-12-24T00:28:29.119Z,94.04
2022-12-24T00:29:19.129Z,93.63
2022-12-24T00:30:09.101Z,93.07
2022-12-24T00:30:59.197Z,93.28
2022-12-24T00:31:49.077Z,93.38
2022-12-24T00:32:39.096Z,93.99
2022-12-24T00:33:29.064Z,94.10
2022-12-24T00:34:19.087Z,93.93
2022-12-24T00:35:09.049Z,93.63
2022-12-24T00:35:59.047Z,93.63
2022-12-24T00:36:49.028Z,94.75
2022-12-24T00:37:39.029Z,94.14
2022-12-24T00:38:29.008Z,94.45
2022-12-24T00:39:19.012Z,95.26
2022-12-24T00:40:08.993Z,95.57
2022-12-24T00:40:58.997Z,96.64
2022-12-24T00:41:48.973Z,96.74
2022-12-24T00:42:38.978Z,96.64
2022-12-24T00:43:28.950Z,96.95
2022-12-24T00:44:18.970Z,97.50
2022-12-24T00:45:08.941Z,97.20
2022-12-24T00:45:58.984Z,97.40
2022-12-24T00:46:48.954Z,97.50
2022-12-24T00:47:38.927Z,97.61
2022-12-24T00:48:28.898Z,97.09
2022-12-24T00:49:18.888Z,96.84
2022-12-24T00:50:08.899Z,96.64
2022-12-24T00:50:58.892Z,96.23
2022-12-24T00:51:48.857Z,96.08
2022-12-24T00:52:38.872Z,96.19
2022-12-24T00:53:28.850Z,96.70
2022-12-24T00:54:18.839Z,96.08
2022-12-24T00:55:08.824Z,95.78
2022-12-24T00:55:58.817Z,96.19
2022-12-24T00:56:48.824Z,95.88
2022-12-24T00:57:38.816Z,96.08
2022-12-24T00:58:28.785Z,95.88
2022-12-24T00:59:18.774Z,95.37
2022-12-24T01:00:08.768Z,95.26
2022-12-24T01:00:58.807Z,95.88
2022-12-24T01:01:48.902Z,95.32
2022-12-24T01:02:39.063Z,96.04
2022-12-24T01:03:28.798Z,96.25
2022-12-24T01:04:18.731Z,96.19
2022-12-24T01:05:08.710Z,96.39
2022-12-24T01:05:58.712Z,95.98
2022-12-24T01:06:48.700Z,96.39
2022-12-24T01:07:38.706Z,96.29
2022-12-24T01:08:28.674Z,96.91
2022-12-24T01:09:18.691Z,96.49
2022-12-24T01:10:08.653Z,96.29
2022-12-24T01:10:58.656Z,96.08
2022-12-24T01:11:48.653Z,96.91
2022-12-24T01:12:38.692Z,96.91
2022-12-24T01:13:28.614Z,97.21
2022-12-24T01:14:18.614Z,97.00
2022-12-24T01:15:08.615Z,96.59
2022-12-24T01:15:58.647Z,96.91
2022-12-24T01:16:48.584Z,96.91
2022-12-24T01:17:38.589Z,96.59
2022-12-24T01:18:28.589Z,95.78
2022-12-24T01:19:18.542Z,95.88
2022-12-24T01:20:15.563Z,96.19
2022-12-24T01:20:58.517Z,96.29
2022-12-24T01:21:48.524Z,95.88
2022-12-24T01:22:38.528Z,95.78
2022-12-24T01:23:28.509Z,96.70
2022-12-24T01:24:18.507Z,95.98
2022-12-24T01:25:08.490Z,96.29
2022-12-24T01:25:58.486Z,96.19
2022-12-24T01:26:48.467Z,95.67
2022-12-24T01:27:38.541Z,95.98
2022-12-24T01:28:28.450Z,96.59
2022-12-24T01:29:18.447Z,97.21
2022-12-24T01:30:08.429Z,96.80
2022-12-24T01:30:58.502Z,96.39
2022-12-24T01:31:48.435Z,96.70
2022-12-24T01:32:38.431Z,96.84
2022-12-24T01:33:28.395Z,96.33
2022-12-24T01:34:18.391Z,96.44
2022-12-24T01:35:08.377Z,96.54
2022-12-24T01:35:58.367Z,96.23
2022-12-24T01:36:49.995Z,95.82
2022-12-24T01:37:38.367Z,96.23
2022-12-24T01:38:28.336Z,96.13
2022-12-24T01:39:18.343Z,96.13
2022-12-24T01:40:08.319Z,95.72
2022-12-24T01:40:58.317Z,95.41
2022-12-24T01:41:48.317Z,95.72
2022-12-24T01:42:38.306Z,95.10
2022-12-24T01:43:28.307Z,94.34
2022-12-24T01:44:18.301Z,93.84
2022-12-24T01:45:08.284Z,93.84
2022-12-24T01:45:58.313Z,92.91
2022-12-24T01:46:48.350Z,92.46
2022-12-24T01:47:38.254Z,92.46
2022-12-24T01:48:28.250Z,92.36
2022-12-24T01:49:18.226Z,92.46
2022-12-24T01:50:08.206Z,92.25
2022-12-24T01:50:58.207Z,91.85
2022-12-24T01:51:48.215Z,91.85
2022-12-24T01:52:38.196Z,91.85
2022-12-24T01:53:28.184Z,91.44
2022-12-24T01:54:18.164Z,91.44
2022-12-24T01:55:08.157Z,91.54
2022-12-24T01:55:58.144Z,91.95
2022-12-24T01:56:48.134Z,92.91
2022-12-24T01:57:38.153Z,93.63
2022-12-24T01:58:28.115Z,92.60
2022-12-24T01:59:18.125Z,93.01
2022-12-24T02:00:08.156Z,92.91
2022-12-24T02:00:58.103Z,93.32
2022-12-24T02:01:48.182Z,92.91
2022-12-24T02:02:38.326Z,92.91
2022-12-24T02:03:28.190Z,93.12
2022-12-24T02:04:18.058Z,93.12
2022-12-24T02:05:08.066Z,93.93
2022-12-24T02:05:58.056Z,93.12
2022-12-24T02:06:48.026Z,93.01
2022-12-24T02:07:38.038Z,93.01
2022-12-24T02:08:28.008Z,92.96
2022-12-24T02:09:18.019Z,93.52
2022-12-24T02:10:07.993Z,93.88
2022-12-24T02:10:57.995Z,94.29
2022-12-24T02:11:47.996Z,93.57
2022-12-24T02:12:37.997Z,93.37
2022-12-24T02:13:27.958Z,93.26
2022-12-24T02:14:17.942Z,93.16
2022-12-24T02:15:07.937Z,93.77
2022-12-24T02:15:57.953Z,93.57
2022-12-24T02:16:47.933Z,93.26
2022-12-24T02:17:37.911Z,94.49
2022-12-24T02:18:27.928Z,94.18
2022-12-24T02:19:17.935Z,94.08
2022-12-24T02:20:07.895Z,93.67
2022-12-24T02:20:57.870Z,93.67
2022-12-24T02:21:47.873Z,93.77
2022-12-24T02:22:37.867Z,94.29
2022-12-24T02:23:27.863Z,93.88
2022-12-24T02:24:17.831Z,94.59
2022-12-24T02:25:07.830Z,95.36
2022-12-24T02:25:57.813Z,94.43
2022-12-24T02:26:47.809Z,95.15
2022-12-24T02:27:37.812Z,94.54
2022-12-24T02:28:27.801Z,93.98
2022-12-24T02:29:17.773Z,93.98
2022-12-24T02:30:07.776Z,93.57
2022-12-24T02:30:57.839Z,93.67
2022-12-24T02:31:47.802Z,94.18
2022-12-24T02:32:37.759Z,93.37
2022-12-24T02:33:27.764Z,93.06
2022-12-24T02:34:17.720Z,92.85
2022-12-24T02:35:07.724Z,93.57
2022-12-24T02:35:57.706Z,92.85
2022-12-24T02:36:47.698Z,93.37
2022-12-24T02:37:37.754Z,93.26
2022-12-24T02:38:27.679Z,92.44
2022-12-24T02:39:17.680Z,92.55
2022-12-24T02:40:13.823Z,92.65
2022-12-24T02:40:58.648Z,93.57
2022-12-24T02:41:47.659Z,93.37
2022-12-24T02:42:37.651Z,92.96
2022-12-24T02:43:27.620Z,93.06
2022-12-24T02:44:17.607Z,93.26
2022-12-24T02:45:07.611Z,93.26
2022-12-24T02:45:59.486Z,93.77
2022-12-24T02:46:47.617Z,93.77
2022-12-24T02:47:37.587Z,93.77
2022-12-24T02:48:27.574Z,94.39
2022-12-24T02:49:17.558Z,94.70
2022-12-24T02:50:07.574Z,94.39
2022-12-24T02:50:57.546Z,94.18
2022-12-24T02:51:47.538Z,94.39
2022-12-24T02:52:37.548Z,95.00
2022-12-24T02:53:27.509Z,95.21
2022-12-24T02:54:17.501Z,95.10
2022-12-24T02:55:07.505Z,95.82
2022-12-24T02:55:57.479Z,95.97
2022-12-24T02:56:47.482Z,95.97
2022-12-24T02:57:37.478Z,95.97
2022-12-24T02:58:27.456Z,96.28
2022-12-24T02:59:17.448Z,96.99
2022-12-24T03:00:07.438Z,96.28
2022-12-24T03:00:57.491Z,96.48
2022-12-24T03:01:47.537Z,96.99
2022-12-24T03:02:37.509Z,97.40
2022-12-24T03:03:27.412Z,97.50
2022-12-24T03:04:17.385Z,97.50
2022-12-24T03:05:07.391Z,97.61
2022-12-24T03:05:57.381Z,97.61
2022-12-24T03:06:47.365Z,97.81
2022-12-24T03:07:37.365Z,97.71
2022-12-24T03:08:27.359Z,97.61
2022-12-24T03:09:17.337Z,97.61
2022-12-24T03:10:07.325Z,98.22
2022-12-24T03:10:57.324Z,97.91
2022-12-24T03:11:47.303Z,97.81
2022-12-24T03:12:37.317Z,97.91
2022-12-24T03:13:27.296Z,98.22
2022-12-24T03:14:17.274Z,98.33
2022-12-24T03:15:07.272Z,98.33
2022-12-24T03:15:57.328Z,98.12
2022-12-24T03:16:47.360Z,97.91
2022-12-24T03:17:37.261Z,97.61
2022-12-24T03:18:27.260Z,97.50
2022-12-24T03:19:17.222Z,97.50
2022-12-24T03:20:07.216Z,97.91
2022-12-24T03:20:57.218Z,97.81
2022-12-24T03:21:47.193Z,97.71
2022-12-24T03:22:37.196Z,97.81
2022-12-24T03:23:27.188Z,98.12
2022-12-24T03:24:17.192Z,98.43
2022-12-24T03:25:07.152Z,98.37
2022-12-24T03:25:57.143Z,98.16
2022-12-24T03:26:47.148Z,97.91
2022-12-24T03:27:37.154Z,98.02
2022-12-24T03:28:27.145Z,98.22
2022-12-24T03:29:17.117Z,98.37
2022-12-24T03:30:07.110Z,98.88
2022-12-24T03:30:57.093Z,99.09
2022-12-24T03:31:47.176Z,99.29
2022-12-24T03:32:37.083Z,99.50
2022-12-24T03:33:27.062Z,99.19
2022-12-24T03:34:17.052Z,99.40
2022-12-24T03:35:07.052Z,98.99
2022-12-24T03:35:57.031Z,98.88
2022-12-24T03:36:47.031Z,98.88
2022-12-24T03:37:37.035Z,99.60
2022-12-24T03:38:27.016Z,99.99
2022-12-24T03:39:16.992Z,99.99
2022-12-24T03:40:07.004Z,99.99
2022-12-24T03:40:56.985Z,99.99
2022-12-24T03:41:53.991Z,99.99
2022-12-24T03:42:36.963Z,99.99
2022-12-24T03:43:26.945Z,99.99
2022-12-24T03:44:16.954Z,99.99
2022-12-24T03:45:06.941Z,99.99
2022-12-24T03:45:56.937Z,99.99
2022-12-24T03:46:46.929Z,99.99
2022-12-24T03:47:36.923Z,99.99
2022-12-24T03:48:32.505Z,99.99
2022-12-24T03:49:17.885Z,99.99
2022-12-24T03:50:06.914Z,99.95
2022-12-24T03:50:56.863Z,99.75
2022-12-24T03:51:46.877Z,99.65
2022-12-24T03:52:36.864Z,99.34
2022-12-24T03:53:26.858Z,99.40
2022-12-24T03:54:16.875Z,99.50
2022-12-24T03:55:06.830Z,99.19
2022-12-24T03:55:56.829Z,98.47
2022-12-24T03:56:46.821Z,98.68
2022-12-24T03:57:36.804Z,98.58
2022-12-24T03:58:26.864Z,98.12
2022-12-24T03:59:16.793Z,98.12
2022-12-24T04:00:06.775Z,98.02
2022-12-24T04:00:56.818Z,97.81
2022-12-24T04:01:47.045Z,97.71
2022-12-24T04:02:36.865Z,98.02
2022-12-24T04:03:26.856Z,97.91
2022-12-24T04:04:16.722Z,97.81
2022-12-24T04:05:06.727Z,97.96
2022-12-24T04:05:56.705Z,98.07
2022-12-24T04:06:46.693Z,97.75
2022-12-24T04:07:36.703Z,97.34
2022-12-24T04:08:26.672Z,96.79
2022-12-24T04:09:16.662Z,96.89
2022-12-24T04:10:06.677Z,96.38
2022-12-24T04:10:56.651Z,96.38
2022-12-24T04:11:46.659Z,96.58
2022-12-24T04:12:36.643Z,96.58
2022-12-24T04:13:26.621Z,96.48
2022-12-24T04:14:16.613Z,96.58
2022-12-24T04:15:06.613Z,96.79
2022-12-24T04:15:56.580Z,96.58
2022-12-24T04:16:46.609Z,96.79
2022-12-24T04:17:36.624Z,96.99
2022-12-24T04:18:26.571Z,97.71
2022-12-24T04:19:16.553Z,97.40
2022-12-24T04:20:06.574Z,97.71
2022-12-24T04:20:56.536Z,97.71
2022-12-24T04:21:46.539Z,97.86
2022-12-24T04:22:36.527Z,97.75
2022-12-24T04:23:26.510Z,97.65
2022-12-24T04:24:16.507Z,97.86
2022-12-24T04:25:06.508Z,97.75
2022-12-24T04:25:56.484Z,97.55
2022-12-24T04:26:46.470Z,97.86
2022-12-24T04:27:36.473Z,97.86
2022-12-24T04:28:26.459Z,97.65
2022-12-24T04:29:16.447Z,97.65
2022-12-24T04:30:06.445Z,97.45
2022-12-24T04:30:56.436Z,97.55
2022-12-24T04:31:46.443Z,97.24
2022-12-24T04:32:36.420Z,97.45
2022-12-24T04:33:26.398Z,97.55
2022-12-24T04:34:16.390Z,97.45
2022-12-24T04:35:06.395Z,97.65
2022-12-24T04:35:56.367Z,97.65
2022-12-24T04:36:46.366Z,97.75
2022-12-24T04:37:36.356Z,97.14
2022-12-24T04:38:26.355Z,95.87
2022-12-24T04:39:16.338Z,95.87
2022-12-24T04:40:06.330Z,95.97
2022-12-24T04:40:56.307Z,96.28
2022-12-24T04:41:46.311Z,96.38
2022-12-24T04:42:36.310Z,96.58
2022-12-24T04:43:26.289Z,96.38
2022-12-24T04:44:16.278Z,96.28
2022-12-24T04:45:06.268Z,96.48
2022-12-24T04:45:56.326Z,96.58
2022-12-24T04:46:46.258Z,96.69
2022-12-24T04:47:36.247Z,96.89
2022-12-24T04:48:26.231Z,97.50
2022-12-24T04:49:16.227Z,97.04
2022-12-24T04:50:06.216Z,97.24
2022-12-24T04:50:56.198Z,97.14
2022-12-24T04:51:46.224Z,97.14
2022-12-24T04:52:36.199Z,96.69
2022-12-24T04:53:26.197Z,96.53
2022-12-24T04:54:16.176Z,96.89
2022-12-24T04:55:06.158Z,96.79
2022-12-24T04:55:56.145Z,96.28
2022-12-24T04:56:46.146Z,96.28
2022-12-24T04:57:36.144Z,95.76
2022-12-24T04:58:26.121Z,96.07
2022-12-24T04:59:16.107Z,95.97
2022-12-24T05:00:06.105Z,96.07
2022-12-24T05:00:56.170Z,96.17
2022-12-24T05:01:46.168Z,96.38
2022-12-24T05:02:36.312Z,96.48
2022-12-24T05:03:26.110Z,96.58
2022-12-24T05:04:16.061Z,96.38
2022-12-24T05:05:06.045Z,96.58
2022-12-24T05:06:01.271Z,96.83
2022-12-24T05:06:47.035Z,96.94
2022-12-24T05:07:36.034Z,97.04
2022-12-24T05:08:26.023Z,96.53
2022-12-24T05:09:16.017Z,96.63
2022-12-24T05:10:05.997Z,96.94
2022-12-24T05:10:55.983Z,96.73
2022-12-24T05:11:45.985Z,96.73
2022-12-24T05:12:35.993Z,96.83
2022-12-24T05:13:31.857Z,97.24
2022-12-24T05:14:16.944Z,97.34
2022-12-24T05:15:05.940Z,97.24
2022-12-24T05:15:55.925Z,96.22
2022-12-24T05:16:45.988Z,96.42
2022-12-24T05:17:35.926Z,96.53
2022-12-24T05:18:25.895Z,96.32
2022-12-24T05:19:16.149Z,96.22
2022-12-24T05:20:05.913Z,96.01
2022-12-24T05:20:55.864Z,96.12
2022-12-24T05:21:45.865Z,95.70
2022-12-24T05:22:35.863Z,95.40
2022-12-24T05:23:25.843Z,95.50
2022-12-24T05:24:15.849Z,95.40
2022-12-24T05:25:05.854Z,95.29
2022-12-24T05:25:55.815Z,95.50
2022-12-24T05:26:45.802Z,95.50
2022-12-24T05:27:35.809Z,95.91
2022-12-24T05:28:25.791Z,95.91
2022-12-24T05:29:15.772Z,95.20
2022-12-24T05:30:05.772Z,94.99
2022-12-24T05:30:55.839Z,95.20
2022-12-24T05:31:45.767Z,95.29
2022-12-24T05:32:35.753Z,95.29
2022-12-24T05:33:25.733Z,94.99
2022-12-24T05:34:15.740Z,95.20
2022-12-24T05:35:05.743Z,95.50
2022-12-24T05:35:55.703Z,95.29
2022-12-24T05:36:45.743Z,95.29
2022-12-24T05:37:35.697Z,95.09
2022-12-24T05:38:25.729Z,94.68
2022-12-24T05:39:16.325Z,94.68
2022-12-24T05:40:05.665Z,94.89
2022-12-24T05:40:55.655Z,94.78
2022-12-24T05:41:45.640Z,94.99
2022-12-24T05:42:35.659Z,94.78
2022-12-24T05:43:25.659Z,94.78
2022-12-24T05:44:15.611Z,95.24
2022-12-24T05:45:05.607Z,94.11
2022-12-24T05:45:55.636Z,94.93
2022-12-24T05:46:45.645Z,95.14
2022-12-24T05:47:41.281Z,95.65
2022-12-24T05:48:26.561Z,96.57
2022-12-24T05:49:15.563Z,97.29
2022-12-24T05:50:05.554Z,97.70
2022-12-24T05:50:55.543Z,98.42
2022-12-24T05:51:45.540Z,98.67
2022-12-24T05:52:35.576Z,98.77
2022-12-24T05:53:25.513Z,98.36
2022-12-24T05:54:15.498Z,97.74
2022-12-24T05:55:05.493Z,98.36
2022-12-24T05:55:55.488Z,98.77
2022-12-24T05:56:45.474Z,98.57
2022-12-24T05:57:35.483Z,98.30
2022-12-24T05:58:25.465Z,97.99
2022-12-24T05:59:15.441Z,97.28
2022-12-24T06:00:05.439Z,96.56
2022-12-24T06:00:55.431Z,95.64
2022-12-24T06:01:45.589Z,96.00
2022-12-24T06:02:35.467Z,96.62
2022-12-24T06:03:25.391Z,96.92
2022-12-24T06:04:15.407Z,96.00
2022-12-24T06:05:05.437Z,95.59
2022-12-24T06:05:55.368Z,95.90
2022-12-24T06:06:45.364Z,95.28
2022-12-24T06:07:35.375Z,95.39
2022-12-24T06:08:25.342Z,95.07
2022-12-24T06:09:15.347Z,94.46
2022-12-24T06:10:05.342Z,95.39
2022-12-24T06:10:55.341Z,95.79
2022-12-24T06:11:45.320Z,96.10
2022-12-24T06:12:35.308Z,95.90
2022-12-24T06:13:25.279Z,95.79
2022-12-24T06:14:15.287Z,95.39
2022-12-24T06:15:05.313Z,94.77
2022-12-24T06:15:55.322Z,94.46
2022-12-24T06:16:45.257Z,94.05
2022-12-24T06:17:35.263Z,93.64
2022-12-24T06:18:25.236Z,93.33
2022-12-24T06:19:15.243Z,93.33
2022-12-24T06:20:05.211Z,93.02
2022-12-24T06:20:55.206Z,92.93
2022-12-24T06:21:45.197Z,92.88
2022-12-24T06:22:35.297Z,92.93
2022-12-24T06:23:25.173Z,93.85
2022-12-24T06:24:15.170Z,95.07
2022-12-24T06:25:05.213Z,96.10
2022-12-24T06:25:55.152Z,96.41
2022-12-24T06:26:45.138Z,96.45
2022-12-24T06:27:35.152Z,96.66
2022-12-24T06:28:25.126Z,96.45
2022-12-24T06:29:15.114Z,96.77
2022-12-24T06:30:05.102Z,98.41
2022-12-24T06:31:02.146Z,98.82
2022-12-24T06:31:46.167Z,99.07
2022-12-24T06:32:35.086Z,98.55
2022-12-24T06:33:25.055Z,97.94
2022-12-24T06:34:15.056Z,97.83
2022-12-24T06:35:05.169Z,97.42
2022-12-24T06:35:55.037Z,96.81
2022-12-24T06:36:45.025Z,96.50
2022-12-24T06:37:35.161Z,96.60
2022-12-24T06:38:25.005Z,96.60
2022-12-24T06:39:14.996Z,96.70
2022-12-24T06:40:04.988Z,97.02
2022-12-24T06:40:54.992Z,97.02
2022-12-24T06:41:44.973Z,96.81
2022-12-24T06:42:34.975Z,96.40
2022-12-24T06:43:24.958Z,96.50
2022-12-24T06:44:14.950Z,96.40
2022-12-24T06:45:08.389Z,96.30
2022-12-24T06:45:54.932Z,96.40
2022-12-24T06:46:44.998Z,96.30
2022-12-24T06:47:34.927Z,95.57
2022-12-24T06:48:24.898Z,95.37
2022-12-24T06:49:14.893Z,95.32
2022-12-24T06:50:04.882Z,95.64
2022-12-24T06:50:54.873Z,95.84
2022-12-24T06:51:44.865Z,95.74
2022-12-24T06:52:34.862Z,95.64
2022-12-24T06:53:24.842Z,95.43
2022-12-24T06:54:14.834Z,95.53
2022-12-24T06:55:04.827Z,95.53
2022-12-24T06:55:54.812Z,95.64
2022-12-24T06:56:44.822Z,95.43
2022-12-24T06:57:34.820Z,95.53
2022-12-24T06:58:24.782Z,95.74
2022-12-24T06:59:14.776Z,95.74
2022-12-24T07:00:04.779Z,95.32
2022-12-24T07:00:54.762Z,95.32
2022-12-24T07:01:44.897Z,95.53
2022-12-24T07:02:34.842Z,95.53
2022-12-24T07:03:24.782Z,95.43
2022-12-24T07:04:20.097Z,95.64
2022-12-24T07:05:05.716Z,95.64
2022-12-24T07:05:54.708Z,95.74
2022-12-24T07:06:44.693Z,95.43
2022-12-24T07:07:34.709Z,95.43
2022-12-24T07:08:24.673Z,95.43
2022-12-24T07:09:14.667Z,95.53
2022-12-24T07:10:04.655Z,96.25
2022-12-24T07:10:54.902Z,96.45
2022-12-24T07:11:44.652Z,96.87
2022-12-24T07:12:34.646Z,96.81
2022-12-24T07:13:24.639Z,95.94
2022-12-24T07:14:14.622Z,96.30
2022-12-24T07:15:04.607Z,95.84
2022-12-24T07:15:54.667Z,95.74
2022-12-24T07:16:44.749Z,95.64
2022-12-24T07:17:34.696Z,95.53
2022-12-24T07:18:24.564Z,95.43
2022-12-24T07:19:14.558Z,95.84
2022-12-24T07:20:04.594Z,96.15
2022-12-24T07:20:54.546Z,96.25
2022-12-24T07:21:44.533Z,96.45
2022-12-24T07:22:34.531Z,95.84
2022-12-24T07:23:24.502Z,95.53
2022-12-24T07:24:14.499Z,95.53
2022-12-24T07:25:04.582Z,95.43
2022-12-24T07:25:54.511Z,95.32
2022-12-24T07:26:44.470Z,95.23
2022-12-24T07:27:34.501Z,95.23
2022-12-24T07:28:28.049Z,95.74
2022-12-24T07:29:14.449Z,95.74
2022-12-24T07:30:04.439Z,95.74
2022-12-24T07:30:54.504Z,95.43
2022-12-24T07:31:44.480Z,95.43
2022-12-24T07:32:34.419Z,95.64
2022-12-24T07:33:24.400Z,95.94
2022-12-24T07:34:14.391Z,96.04
2022-12-24T07:35:04.384Z,96.25
2022-12-24T07:35:56.044Z,96.35
2022-12-24T07:36:45.327Z,96.60
2022-12-24T07:37:34.366Z,96.60
2022-12-24T07:38:24.338Z,96.60
2022-12-24T07:39:14.342Z,96.30
2022-12-24T07:40:04.318Z,95.94
2022-12-24T07:40:54.317Z,95.64
2022-12-24T07:41:44.297Z,95.53
2022-12-24T07:42:34.318Z,95.64
2022-12-24T07:43:24.291Z,95.74
2022-12-24T07:44:14.283Z,95.43
2022-12-24T07:45:04.267Z,95.94
2022-12-24T07:45:54.263Z,96.25
2022-12-24T07:46:44.423Z,95.94
2022-12-24T07:47:34.256Z,96.45
2022-12-24T07:48:24.241Z,96.87
2022-12-24T07:49:14.227Z,97.28
2022-12-24T07:50:04.226Z,97.48
2022-12-24T07:50:54.216Z,97.73
2022-12-24T07:51:44.195Z,97.94
2022-12-24T07:52:34.211Z,98.25
2022-12-24T07:53:24.182Z,98.35
2022-12-24T07:54:14.182Z,98.66
2022-12-24T07:55:04.170Z,99.01
2022-12-24T07:55:54.153Z,99.32
2022-12-24T07:56:44.143Z,99.63
2022-12-24T07:57:34.161Z,99.93
2022-12-24T07:58:24.121Z,99.99
2022-12-24T07:59:14.126Z,99.99
2022-12-24T08:00:04.102Z,99.99
2022-12-24T08:00:54.097Z,99.99
2022-12-24T08:01:44.330Z,99.99
2022-12-24T08:02:34.231Z,99.99
2022-12-24T08:03:24.121Z,99.99
2022-12-24T08:04:14.071Z,99.99
2022-12-24T08:05:04.056Z,99.99
2022-12-24T08:05:54.073Z,99.99
2022-12-24T08:06:44.039Z,99.99
2022-12-24T08:07:34.046Z,99.99
2022-12-24T08:08:24.038Z,99.99
2022-12-24T08:09:14.003Z,99.99
2022-12-24T08:10:04.002Z,99.99
2022-12-24T08:10:54.010Z,99.99
2022-12-24T08:11:51.385Z,99.99
2022-12-24T08:12:34.982Z,99.99
2022-12-24T08:13:23.961Z,99.99
2022-12-24T08:14:13.945Z,99.99
2022-12-24T08:15:03.943Z,99.99
2022-12-24T08:15:53.950Z,99.99
2022-12-24T08:16:43.965Z,99.99
2022-12-24T08:17:33.934Z,99.99
2022-12-24T08:18:23.892Z,99.99
2022-12-24T08:19:13.893Z,99.99
2022-12-24T08:20:04.021Z,99.99
2022-12-24T08:20:53.869Z,99.99
2022-12-24T08:21:43.862Z,99.99
2022-12-24T08:22:33.877Z,99.99
2022-12-24T08:23:23.844Z,99.99
2022-12-24T08:24:20.828Z,99.99
2022-12-24T08:25:03.814Z,99.99
2022-12-24T08:25:53.797Z,99.99
2022-12-24T08:26:43.798Z,99.99
2022-12-24T08:27:33.818Z,99.99
2022-12-24T08:28:23.784Z,99.99
2022-12-24T08:29:13.784Z,99.99
2022-12-24T08:30:03.776Z,99.99
2022-12-24T08:30:53.760Z,99.99
2022-12-24T08:31:43.823Z,99.99
2022-12-24T08:32:33.767Z,99.99
2022-12-24T08:33:23.729Z,99.99
2022-12-24T08:34:13.725Z,99.99
2022-12-24T08:35:03.713Z,99.99
2022-12-24T08:35:53.711Z,99.99
2022-12-24T08:36:43.697Z,99.99
2022-12-24T08:37:33.702Z,99.99
2022-12-24T08:38:23.690Z,99.99
2022-12-24T08:39:13.671Z,99.99
2022-12-24T08:40:03.672Z,99.99
2022-12-24T08:40:53.664Z,99.99
2022-12-24T08:41:43.634Z,99.99
2022-12-24T08:42:33.676Z,99.99
2022-12-24T08:43:23.614Z,99.99
2022-12-24T08:44:13.639Z,99.99
2022-12-24T08:45:03.594Z,99.99
2022-12-24T08:45:53.625Z,99.99
2022-12-24T08:46:43.639Z,99.99
2022-12-24T08:47:33.593Z,99.99
2022-12-24T08:48:23.565Z,99.99
2022-12-24T08:49:13.565Z,99.99
2022-12-24T08:50:03.544Z,99.99
2022-12-24T08:50:53.545Z,99.99
2022-12-24T08:51:43.533Z,99.99
2022-12-24T08:52:33.534Z,99.99
2022-12-24T08:53:23.505Z,99.99
2022-12-24T08:54:13.501Z,99.99
2022-12-24T08:55:03.483Z,99.99
2022-12-24T08:55:56.251Z,99.99
2022-12-24T08:56:43.483Z,99.99
2022-12-24T08:57:33.483Z,99.99
2022-12-24T08:58:23.456Z,99.99
2022-12-24T08:59:13.442Z,99.99
2022-12-24T09:00:03.434Z,99.99
2022-12-24T09:00:53.468Z,99.99
2022-12-24T09:01:43.626Z,99.99
2022-12-24T09:02:33.566Z,99.99
2022-12-24T09:03:27.294Z,99.99
2022-12-24T09:04:13.392Z,99.99
2022-12-24T09:05:03.381Z,99.99
2022-12-24T09:05:53.377Z,99.99
2022-12-24T09:06:43.361Z,99.99
2022-12-24T09:07:33.370Z,99.99
2022-12-24T09:08:23.341Z,99.99
2022-12-24T09:09:13.340Z,99.99
2022-12-24T09:10:03.326Z,99.99
2022-12-24T09:10:53.315Z,99.99
2022-12-24T09:11:43.301Z,99.99
2022-12-24T09:12:33.319Z,99.99
2022-12-24T09:13:23.288Z,99.99
2022-12-24T09:14:13.284Z,99.99
2022-12-24T09:15:04.341Z,99.99
2022-12-24T09:15:53.260Z,99.99
2022-12-24T09:16:43.353Z,99.99
2022-12-24T09:17:33.264Z,99.99
2022-12-24T09:18:23.240Z,99.99
2022-12-24T09:19:13.219Z,99.99
2022-12-24T09:20:03.233Z,99.99
2022-12-24T09:20:57.281Z,99.99
2022-12-24T09:21:43.200Z,99.99
2022-12-24T09:22:33.198Z,99.99
2022-12-24T09:23:23.186Z,99.99
2022-12-24T09:24:13.159Z,99.99
2022-12-24T09:25:03.172Z,99.99
2022-12-24T09:25:53.149Z,99.99
2022-12-24T09:26:43.138Z,99.99
2022-12-24T09:27:33.146Z,99.99
2022-12-24T09:28:23.119Z,99.99
2022-12-24T09:29:13.112Z,99.99
2022-12-24T09:30:03.108Z,99.99
2022-12-24T09:30:53.087Z,99.99
2022-12-24T09:31:43.150Z,99.99
2022-12-24T09:32:33.104Z,99.99
2022-12-24T09:33:23.067Z,99.99
2022-12-24T09:34:13.052Z,99.99
2022-12-24T09:35:03.055Z,99.99
2022-12-24T09:35:53.036Z,99.99
2022-12-24T09:36:43.038Z,99.99
2022-12-24T09:37:33.055Z,99.99
2022-12-24T09:38:23.035Z,99.99
2022-12-24T09:39:13.013Z,99.99
2022-12-24T09:40:02.988Z,99.99
2022-12-24T09:40:52.978Z,99.99
2022-12-24T09:41:42.967Z,99.99
2022-12-24T09:42:32.976Z,99.99
2022-12-24T09:43:22.962Z,99.99
2022-12-24T09:44:12.948Z,99.99
2022-12-24T09:45:02.935Z,99.99
2022-12-24T09:45:52.970Z,99.99
2022-12-24T09:46:42.917Z,99.99
2022-12-24T09:47:32.918Z,99.99
2022-12-24T09:48:22.896Z,99.99
2022-12-24T09:49:12.896Z,99.99
2022-12-24T09:50:02.906Z,99.99
2022-12-24T09:50:52.869Z,99.99
2022-12-24T09:51:42.867Z,99.99
2022-12-24T09:52:32.865Z,99.99
2022-12-24T09:53:22.846Z,99.99
2022-12-24T09:54:12.834Z,99.99
2022-12-24T09:55:02.826Z,99.99
2022-12-24T09:55:52.816Z,99.99
2022-12-24T09:56:42.806Z,99.99
2022-12-24T09:57:32.819Z,99.99
2022-12-24T09:58:22.784Z,99.99
2022-12-24T09:59:12.777Z,99.99
2022-12-24T10:00:02.773Z,99.99
2022-12-24T10:00:52.754Z,99.99
2022-12-24T10:01:42.978Z,99.99
2022-12-24T10:02:32.916Z,99.99
2022-12-24T10:03:22.774Z,99.99
2022-12-24T10:04:12.729Z,99.96
2022-12-24T10:05:02.732Z,99.76
2022-12-24T10:05:52.736Z,99.35
2022-12-24T10:06:42.706Z,99.25
2022-12-24T10:07:32.702Z,99.20
2022-12-24T10:08:22.677Z,99.10
2022-12-24T10:09:12.663Z,98.38
2022-12-24T10:10:02.658Z,98.18
2022-12-24T10:10:52.652Z,97.46
2022-12-24T10:11:44.356Z,96.74
2022-12-24T10:12:32.645Z,97.05
2022-12-24T10:13:22.624Z,97.25
2022-12-24T10:14:12.616Z,97.00
2022-12-24T10:15:02.604Z,97.11
2022-12-24T10:15:52.598Z,97.41
2022-12-24T10:16:42.687Z,97.62
2022-12-24T10:17:32.582Z,97.52
2022-12-24T10:18:22.568Z,97.41
2022-12-24T10:19:12.558Z,97.52
2022-12-24T10:20:02.549Z,98.03
2022-12-24T10:20:52.541Z,97.41
2022-12-24T10:21:42.539Z,96.80
2022-12-24T10:22:32.539Z,97.00
2022-12-24T10:23:22.511Z,97.27
2022-12-24T10:24:12.500Z,97.47
2022-12-24T10:25:02.491Z,97.27
2022-12-24T10:25:52.490Z,97.37
2022-12-24T10:26:42.477Z,96.55
2022-12-24T10:27:32.472Z,96.75
2022-12-24T10:28:22.470Z,96.86
2022-12-24T10:29:12.452Z,96.66
2022-12-24T10:30:02.444Z,96.55
2022-12-24T10:30:52.463Z,96.55
2022-12-24T10:31:42.419Z,96.55
2022-12-24T10:32:32.420Z,96.55
2022-12-24T10:33:22.401Z,96.45
2022-12-24T10:34:12.382Z,96.04
2022-12-24T10:35:02.407Z,96.04
2022-12-24T10:35:52.370Z,95.94
2022-12-24T10:36:42.369Z,96.04
2022-12-24T10:37:32.370Z,95.84
2022-12-24T10:38:22.339Z,96.45
2022-12-24T10:39:12.329Z,96.66
2022-12-24T10:40:02.320Z,96.34
2022-12-24T10:40:52.310Z,96.55
2022-12-24T10:41:42.341Z,95.84
2022-12-24T10:42:32.309Z,95.84
2022-12-24T10:43:22.291Z,96.14